CAL081 RCTP-EGLL
Flight info
| Callsign | CAL081 |
|---|---|
| Flight time | N/A |
| Altitude | 26000 |
| Route | CHALI1C CHALI T3 MKG A1 KADLO/N0503F280 T1 KAPLI DCT ALLEY V10 SIKOU/K0928S0840 R339 WUY R474 TEBAK/K0937F280 R474 NOB W21 BQ B214 LADON/N0507F280 B214 AKSAG B465 CTG/N0515F300 B465 CEA R460 LKN M890 JAL R594 DPN G333 MERUN L750 UPVAL/N0503F320 L750 RANAH B449 MAMED B450 BIBIM A909 RODAR N644 ADEKI DCT BADIR DCT LAGAS DCT FOQUS DCT SARPI/N0489F340 UM10 GOKPA UL746 ODERO L621 REVDA DCT DEGET DCT ABETI DCT RENKA L610 STAUB/N0464F240 L610 INBED DCT BOMBI DCT ADKUV DCT SOGRI L608 LOGAN |
| Aircraft | B77W/H-SDE1E2E3FGHIJ2J3J4J5M1RWXY/LB1D1 |
Departure
| Time | N/A |
|---|---|
| Airport | Taiwan Taoyuan International Airport (RCTP) |
Arrival
| Time | 2026-05-05 23:21 |
|---|---|
| Airport | London Heathrow Airport (EGLL) |
| Time | Latitude | Longitude | Altitude | Speed | Heading |
|---|---|---|---|---|---|
| 2026-05-05 21:54 | 48.50857 | 13.82199 | 31827 ft | 474 kts | 287° |
| 2026-05-05 21:54 | 48.52003 | 13.77468 | 31841 ft | 474 kts | 287° |
| 2026-05-05 21:55 | 48.54253 | 13.68150 | 31849 ft | 473 kts | 287° |
| 2026-05-05 21:55 | 48.56510 | 13.58761 | 31835 ft | 477 kts | 287° |
| 2026-05-05 21:56 | 48.58770 | 13.49326 | 31844 ft | 477 kts | 287° |
| 2026-05-05 21:56 | 48.61045 | 13.39901 | 31839 ft | 478 kts | 287° |
| 2026-05-05 21:57 | 48.63326 | 13.30417 | 31844 ft | 478 kts | 286° |
| 2026-05-05 21:57 | 48.65575 | 13.21026 | 31848 ft | 477 kts | 286° |
| 2026-05-05 21:58 | 48.67846 | 13.11499 | 31850 ft | 479 kts | 286° |
| 2026-05-05 21:58 | 48.70112 | 13.01943 | 31845 ft | 480 kts | 286° |
| 2026-05-05 21:59 | 48.72361 | 12.92396 | 31846 ft | 481 kts | 286° |
| 2026-05-05 21:59 | 48.74614 | 12.82789 | 31847 ft | 481 kts | 286° |
| 2026-05-05 22:00 | 48.76866 | 12.73144 | 31849 ft | 481 kts | 286° |
| 2026-05-05 22:00 | 48.79111 | 12.63488 | 31847 ft | 479 kts | 285° |
| 2026-05-05 22:01 | 48.81356 | 12.53779 | 31850 ft | 481 kts | 285° |
| 2026-05-05 22:01 | 48.83609 | 12.43989 | 31857 ft | 481 kts | 285° |
| 2026-05-05 22:02 | 48.85830 | 12.34298 | 31852 ft | 482 kts | 284° |
| 2026-05-05 22:02 | 48.88007 | 12.24757 | 31856 ft | 479 kts | 285° |
| 2026-05-05 22:03 | 48.90845 | 12.15384 | 31861 ft | 487 kts | 293° |
| 2026-05-05 22:03 | 48.93961 | 12.06067 | 31851 ft | 485 kts | 292° |
| 2026-05-05 22:04 | 48.97007 | 11.96915 | 31859 ft | 484 kts | 292° |
| 2026-05-05 22:04 | 49.00042 | 11.87754 | 31851 ft | 487 kts | 292° |
| 2026-05-05 22:05 | 49.03080 | 11.78545 | 31853 ft | 485 kts | 292° |
| 2026-05-05 22:05 | 49.06151 | 11.69198 | 31860 ft | 486 kts | 293° |
| 2026-05-05 22:06 | 49.09194 | 11.59904 | 31846 ft | 486 kts | 293° |
| 2026-05-05 22:06 | 49.12220 | 11.50623 | 31840 ft | 487 kts | 292° |
| 2026-05-05 22:07 | 49.15251 | 11.41295 | 31819 ft | 488 kts | 293° |
| 2026-05-05 22:07 | 49.18246 | 11.32042 | 31840 ft | 486 kts | 292° |
| 2026-05-05 22:08 | 49.21427 | 11.22879 | 31832 ft | 491 kts | 301° |
| 2026-05-05 22:08 | 49.25903 | 11.14923 | 31845 ft | 496 kts | 310° |
| 2026-05-05 22:09 | 49.30686 | 11.07212 | 31845 ft | 496 kts | 310° |
| 2026-05-05 22:09 | 49.35465 | 10.99487 | 31844 ft | 496 kts | 310° |
| 2026-05-05 22:10 | 49.39641 | 10.91178 | 31849 ft | 492 kts | 295° |
| 2026-05-05 22:10 | 49.42753 | 10.81835 | 31852 ft | 491 kts | 293° |
| 2026-05-05 22:11 | 49.45816 | 10.72391 | 31844 ft | 494 kts | 293° |
| 2026-05-05 22:11 | 49.48863 | 10.62956 | 31840 ft | 492 kts | 293° |
| 2026-05-05 22:12 | 49.51931 | 10.53416 | 31840 ft | 492 kts | 293° |
| 2026-05-05 22:12 | 49.54971 | 10.43925 | 31832 ft | 497 kts | 294° |
| 2026-05-05 22:13 | 49.57998 | 10.34441 | 31831 ft | 493 kts | 292° |
| 2026-05-05 22:13 | 49.61027 | 10.24911 | 31835 ft | 494 kts | 293° |
| 2026-05-05 22:14 | 49.64064 | 10.15318 | 31818 ft | 495 kts | 293° |
| 2026-05-05 22:14 | 49.67094 | 10.05712 | 31832 ft | 494 kts | 293° |
| 2026-05-05 22:15 | 49.70105 | 9.96128 | 31833 ft | 494 kts | 293° |
| 2026-05-05 22:15 | 49.73123 | 9.86484 | 31837 ft | 495 kts | 293° |
| 2026-05-05 22:16 | 49.76107 | 9.76914 | 31839 ft | 496 kts | 293° |
| 2026-05-05 22:16 | 49.79127 | 9.67189 | 31833 ft | 496 kts | 293° |
| 2026-05-05 22:17 | 49.82109 | 9.57548 | 31833 ft | 496 kts | 294° |
| 2026-05-05 22:17 | 49.85090 | 9.47874 | 31835 ft | 495 kts | 293° |
| 2026-05-05 22:18 | 49.88068 | 9.38170 | 31839 ft | 496 kts | 294° |
| 2026-05-05 22:18 | 49.91018 | 9.28519 | 31830 ft | 496 kts | 292° |
| 2026-05-05 22:19 | 49.94011 | 9.18690 | 31836 ft | 499 kts | 293° |
| 2026-05-05 22:19 | 49.96955 | 9.08980 | 31830 ft | 497 kts | 293° |
| 2026-05-05 22:20 | 49.99898 | 8.99237 | 31829 ft | 495 kts | 293° |
| 2026-05-05 22:20 | 50.02822 | 8.89518 | 31826 ft | 497 kts | 293° |
| 2026-05-05 22:21 | 50.05708 | 8.79706 | 31824 ft | 497 kts | 290° |
| 2026-05-05 22:21 | 50.08118 | 8.69703 | 31827 ft | 492 kts | 289° |
| 2026-05-05 22:22 | 50.10476 | 8.59713 | 31816 ft | 491 kts | 289° |
| 2026-05-05 22:22 | 50.12823 | 8.49727 | 31806 ft | 490 kts | 289° |
| 2026-05-05 22:23 | 50.15176 | 8.39667 | 31802 ft | 490 kts | 289° |
| 2026-05-05 22:23 | 50.17508 | 8.29652 | 31800 ft | 489 kts | 288° |
| 2026-05-05 22:24 | 50.19845 | 8.19570 | 31796 ft | 489 kts | 288° |
| 2026-05-05 22:24 | 50.22166 | 8.09508 | 31802 ft | 490 kts | 288° |
| 2026-05-05 22:25 | 50.24481 | 7.99424 | 31800 ft | 490 kts | 288° |
| 2026-05-05 22:25 | 50.26780 | 7.89365 | 31800 ft | 490 kts | 288° |
| 2026-05-05 22:26 | 50.29073 | 7.79283 | 31794 ft | 492 kts | 288° |
| 2026-05-05 22:26 | 50.31344 | 7.69247 | 31797 ft | 490 kts | 288° |
| 2026-05-05 22:27 | 50.33616 | 7.59163 | 31797 ft | 492 kts | 288° |
| 2026-05-05 22:27 | 50.35873 | 7.49096 | 31798 ft | 491 kts | 288° |
| 2026-05-05 22:28 | 50.38119 | 7.39031 | 31800 ft | 492 kts | 288° |
| 2026-05-05 22:28 | 50.40379 | 7.28853 | 31793 ft | 492 kts | 288° |
| 2026-05-05 22:29 | 50.42623 | 7.18696 | 31786 ft | 492 kts | 287° |
| 2026-05-05 22:29 | 50.44854 | 7.08552 | 31789 ft | 492 kts | 288° |
| 2026-05-05 22:30 | 50.47100 | 6.98285 | 31791 ft | 493 kts | 287° |
| 2026-05-05 22:30 | 50.49298 | 6.88190 | 31792 ft | 492 kts | 287° |
| 2026-05-05 22:31 | 50.51472 | 6.77880 | 31794 ft | 493 kts | 284° |
| 2026-05-05 22:31 | 50.53291 | 6.67418 | 31798 ft | 492 kts | 284° |
| 2026-05-05 22:32 | 50.55088 | 6.57033 | 31804 ft | 493 kts | 284° |
| 2026-05-05 22:32 | 50.56909 | 6.46518 | 31796 ft | 492 kts | 284° |
| 2026-05-05 22:33 | 50.58720 | 6.36047 | 31805 ft | 492 kts | 284° |
| 2026-05-05 22:33 | 50.60521 | 6.25589 | 31803 ft | 493 kts | 283° |
| 2026-05-05 22:34 | 50.62312 | 6.15138 | 31803 ft | 492 kts | 283° |
| 2026-05-05 22:34 | 50.64103 | 6.04631 | 31809 ft | 492 kts | 284° |
| 2026-05-05 22:35 | 50.65882 | 5.94138 | 31819 ft | 491 kts | 284° |
| 2026-05-05 22:35 | 50.67652 | 5.83631 | 31831 ft | 490 kts | 284° |
| 2026-05-05 22:36 | 50.69407 | 5.73156 | 31835 ft | 489 kts | 284° |
| 2026-05-05 22:36 | 50.71151 | 5.62682 | 31835 ft | 491 kts | 284° |
| 2026-05-05 22:37 | 50.72891 | 5.52162 | 31838 ft | 491 kts | 284° |
| 2026-05-05 22:37 | 50.74624 | 5.41625 | 31840 ft | 490 kts | 284° |
| 2026-05-05 22:38 | 50.76323 | 5.31230 | 31838 ft | 489 kts | 283° |
| 2026-05-05 22:38 | 50.78051 | 5.20587 | 31830 ft | 489 kts | 283° |
| 2026-05-05 22:39 | 50.79747 | 5.10076 | 31840 ft | 489 kts | 283° |
| 2026-05-05 22:39 | 50.81520 | 4.99541 | 31848 ft | 490 kts | 285° |
| 2026-05-05 22:40 | 50.83532 | 4.89140 | 31854 ft | 490 kts | 286° |
| 2026-05-05 22:40 | 50.85522 | 4.78757 | 31861 ft | 489 kts | 286° |
| 2026-05-05 22:41 | 50.87489 | 4.68387 | 31863 ft | 487 kts | 286° |
| 2026-05-05 22:41 | 50.89434 | 4.58056 | 31863 ft | 488 kts | 287° |
| 2026-05-05 22:42 | 50.92332 | 4.48297 | 31872 ft | 488 kts | 301° |
| 2026-05-05 22:42 | 50.95913 | 4.38986 | 31877 ft | 488 kts | 301° |
| 2026-05-05 22:43 | 50.99470 | 4.29714 | 31878 ft | 488 kts | 301° |
| 2026-05-05 22:43 | 51.03026 | 4.20402 | 31881 ft | 487 kts | 301° |
| 2026-05-05 22:44 | 51.06575 | 4.11068 | 31874 ft | 487 kts | 300° |
| 2026-05-05 22:44 | 51.10094 | 4.01778 | 31871 ft | 486 kts | 300° |
| 2026-05-05 22:45 | 51.13598 | 3.92489 | 31885 ft | 487 kts | 300° |
| 2026-05-05 22:45 | 51.17117 | 3.83128 | 31882 ft | 486 kts | 300° |
| 2026-05-05 22:46 | 51.20618 | 3.73780 | 31879 ft | 486 kts | 300° |
| 2026-05-05 22:46 | 51.24108 | 3.64424 | 31885 ft | 485 kts | 300° |
| 2026-05-05 22:47 | 51.27578 | 3.55088 | 31886 ft | 484 kts | 300° |
| 2026-05-05 22:47 | 51.31055 | 3.45697 | 31890 ft | 484 kts | 300° |
| 2026-05-05 22:48 | 51.34495 | 3.36211 | 31885 ft | 482 kts | 296° |
| 2026-05-05 22:48 | 51.37001 | 3.26316 | 31901 ft | 480 kts | 289° |
| 2026-05-05 22:49 | 51.39397 | 3.16184 | 31900 ft | 480 kts | 289° |
| 2026-05-05 22:49 | 51.41773 | 3.06092 | 31903 ft | 479 kts | 289° |
| 2026-05-05 22:50 | 51.44130 | 2.96055 | 31903 ft | 479 kts | 289° |
| 2026-05-05 22:50 | 51.46484 | 2.85984 | 31911 ft | 478 kts | 289° |
| 2026-05-05 22:51 | 51.48845 | 2.75835 | 31914 ft | 478 kts | 289° |
| 2026-05-05 22:51 | 51.51183 | 2.65740 | 31913 ft | 477 kts | 289° |
| 2026-05-05 22:52 | 51.53484 | 2.55757 | 31922 ft | 476 kts | 289° |
| 2026-05-05 22:52 | 51.55789 | 2.45703 | 31928 ft | 475 kts | 289° |
| 2026-05-05 22:53 | 51.58106 | 2.35546 | 31935 ft | 474 kts | 289° |
| 2026-05-05 22:53 | 51.60361 | 2.25643 | 31937 ft | 474 kts | 288° |
| 2026-05-05 22:54 | 51.62605 | 2.15745 | 31110 ft | 470 kts | 288° |
| 2026-05-05 22:54 | 51.63737 | 2.10735 | 30225 ft | 471 kts | 288° |
| 2026-05-05 22:54 | 51.64843 | 2.05819 | 29817 ft | 462 kts | 288° |
| 2026-05-05 22:54 | 51.65942 | 2.00922 | 29351 ft | 455 kts | 288° |
| 2026-05-05 22:55 | 51.67024 | 1.96086 | 28830 ft | 449 kts | 288° |
| 2026-05-05 22:55 | 51.68077 | 1.91371 | 28305 ft | 444 kts | 289° |
| 2026-05-05 22:55 | 51.69108 | 1.86742 | 27792 ft | 439 kts | 289° |
| 2026-05-05 22:55 | 51.70142 | 1.82085 | 27270 ft | 434 kts | 289° |
| 2026-05-05 22:56 | 51.71152 | 1.77531 | 26743 ft | 429 kts | 289° |
| 2026-05-05 22:56 | 51.72148 | 1.73032 | 26233 ft | 424 kts | 289° |
| 2026-05-05 22:56 | 51.73137 | 1.68551 | 25715 ft | 419 kts | 289° |
| 2026-05-05 22:56 | 51.73993 | 1.64021 | 25197 ft | 425 kts | 282° |
| 2026-05-05 22:57 | 51.74390 | 1.59274 | 24663 ft | 430 kts | 273° |
| 2026-05-05 22:57 | 51.74304 | 1.54479 | 24006 ft | 429 kts | 265° |
| 2026-05-05 22:57 | 51.74013 | 1.49637 | 23345 ft | 427 kts | 265° |
| 2026-05-05 22:57 | 51.73708 | 1.44853 | 22701 ft | 425 kts | 265° |
| 2026-05-05 22:58 | 51.73400 | 1.40070 | 22057 ft | 423 kts | 265° |
| 2026-05-05 22:58 | 51.73093 | 1.35350 | 21420 ft | 420 kts | 265° |
| 2026-05-05 22:58 | 51.72787 | 1.30675 | 20782 ft | 418 kts | 264° |
| 2026-05-05 22:58 | 51.72481 | 1.26022 | 20154 ft | 415 kts | 264° |
| 2026-05-05 22:59 | 51.72171 | 1.21352 | 19518 ft | 413 kts | 264° |
| 2026-05-05 22:59 | 51.71861 | 1.16712 | 18886 ft | 411 kts | 264° |
| 2026-05-05 22:59 | 51.71552 | 1.12110 | 18261 ft | 408 kts | 264° |
| 2026-05-05 22:59 | 51.71240 | 1.07505 | 17635 ft | 405 kts | 264° |
| 2026-05-05 23:00 | 51.70623 | 0.98465 | 16403 ft | 399 kts | 264° |
| 2026-05-05 23:00 | 51.70317 | 0.94013 | 15788 ft | 396 kts | 264° |
| 2026-05-05 23:00 | 51.70009 | 0.89567 | 15307 ft | 389 kts | 264° |
| 2026-05-05 23:01 | 51.69706 | 0.85215 | 14839 ft | 383 kts | 264° |
| 2026-05-05 23:01 | 51.69411 | 0.81004 | 14371 ft | 377 kts | 264° |
| 2026-05-05 23:01 | 51.69115 | 0.76804 | 13897 ft | 372 kts | 264° |
| 2026-05-05 23:01 | 51.68830 | 0.72772 | 13450 ft | 367 kts | 264° |
| 2026-05-05 23:02 | 51.68539 | 0.68677 | 12993 ft | 362 kts | 265° |
| 2026-05-05 23:02 | 51.68250 | 0.64628 | 12477 ft | 357 kts | 265° |
| 2026-05-05 23:02 | 51.67963 | 0.60631 | 12065 ft | 352 kts | 265° |
| 2026-05-05 23:02 | 51.67675 | 0.56630 | 11679 ft | 347 kts | 265° |
| 2026-05-05 23:03 | 51.67389 | 0.52690 | 11200 ft | 344 kts | 265° |
| 2026-05-05 23:03 | 51.67111 | 0.48878 | 10833 ft | 328 kts | 265° |
| 2026-05-05 23:03 | 51.66846 | 0.45266 | 10623 ft | 308 kts | 265° |
| 2026-05-05 23:03 | 51.66600 | 0.41924 | 10493 ft | 288 kts | 265° |
| 2026-05-05 23:04 | 51.66366 | 0.38751 | 10382 ft | 278 kts | 265° |
| 2026-05-05 23:04 | 51.66141 | 0.35699 | 10064 ft | 276 kts | 265° |
| 2026-05-05 23:04 | 51.65911 | 0.32588 | 9713 ft | 275 kts | 265° |
| 2026-05-05 23:04 | 51.65686 | 0.29570 | 9396 ft | 274 kts | 265° |
| 2026-05-05 23:05 | 51.65460 | 0.26543 | 9057 ft | 273 kts | 265° |
| 2026-05-05 23:05 | 51.65232 | 0.23505 | 8734 ft | 271 kts | 265° |
| 2026-05-05 23:05 | 51.65002 | 0.20457 | 8407 ft | 269 kts | 265° |
| 2026-05-05 23:05 | 51.64778 | 0.17493 | 8294 ft | 259 kts | 265° |
| 2026-05-05 23:06 | 51.64565 | 0.14702 | 8228 ft | 247 kts | 266° |
| 2026-05-05 23:06 | 51.64410 | 0.11966 | 7937 ft | 245 kts | 268° |
| 2026-05-05 23:06 | 51.64270 | 0.09202 | 7630 ft | 244 kts | 268° |
| 2026-05-05 23:06 | 51.64125 | 0.06474 | 7324 ft | 243 kts | 267° |
| 2026-05-05 23:07 | 51.63974 | 0.03744 | 7057 ft | 240 kts | 267° |
| 2026-05-05 23:07 | 51.63828 | 0.01097 | 6983 ft | 241 kts | 268° |
| 2026-05-05 23:07 | 51.63678 | -0.01594 | 6974 ft | 241 kts | 267° |
| 2026-05-05 23:07 | 51.63528 | -0.04271 | 6976 ft | 241 kts | 267° |
| 2026-05-05 23:08 | 51.63374 | -0.07004 | 6981 ft | 241 kts | 267° |
| 2026-05-05 23:08 | 51.63222 | -0.09687 | 6962 ft | 241 kts | 267° |
| 2026-05-05 23:08 | 51.63070 | -0.12388 | 6960 ft | 242 kts | 267° |
| 2026-05-05 23:08 | 51.62914 | -0.15119 | 6981 ft | 242 kts | 268° |
| 2026-05-05 23:09 | 51.62758 | -0.17844 | 6949 ft | 242 kts | 267° |
| 2026-05-05 23:09 | 51.62603 | -0.20553 | 6957 ft | 242 kts | 267° |
| 2026-05-05 23:09 | 51.62446 | -0.23270 | 6961 ft | 244 kts | 267° |
| 2026-05-05 23:09 | 51.62287 | -0.26031 | 6970 ft | 246 kts | 267° |
| 2026-05-05 23:10 | 51.62126 | -0.28780 | 6961 ft | 243 kts | 267° |
| 2026-05-05 23:10 | 51.61968 | -0.31488 | 6974 ft | 243 kts | 267° |
| 2026-05-05 23:10 | 51.61809 | -0.34213 | 6971 ft | 242 kts | 267° |
| 2026-05-05 23:10 | 51.61649 | -0.36922 | 6975 ft | 243 kts | 267° |
| 2026-05-05 23:11 | 51.61488 | -0.39661 | 6970 ft | 244 kts | 267° |
| 2026-05-05 23:11 | 51.61328 | -0.42346 | 6972 ft | 244 kts | 267° |
| 2026-05-05 23:11 | 51.61165 | -0.45102 | 6973 ft | 244 kts | 267° |
| 2026-05-05 23:11 | 51.61003 | -0.47801 | 6966 ft | 243 kts | 267° |
| 2026-05-05 23:12 | 51.60839 | -0.50532 | 6980 ft | 243 kts | 267° |
| 2026-05-05 23:12 | 51.60675 | -0.53254 | 6983 ft | 243 kts | 267° |
| 2026-05-05 23:12 | 51.60511 | -0.55976 | 6992 ft | 242 kts | 267° |
| 2026-05-05 23:12 | 51.60346 | -0.58692 | 6974 ft | 243 kts | 267° |
| 2026-05-05 23:13 | 51.60179 | -0.61435 | 6983 ft | 244 kts | 267° |
| 2026-05-05 23:13 | 51.60013 | -0.64148 | 6984 ft | 244 kts | 267° |
| 2026-05-05 23:13 | 51.59843 | -0.66917 | 6867 ft | 247 kts | 266° |
| 2026-05-05 23:13 | 51.59676 | -0.69626 | 6574 ft | 246 kts | 266° |
| 2026-05-05 23:14 | 51.59504 | -0.72400 | 6306 ft | 244 kts | 266° |
| 2026-05-05 23:14 | 51.59333 | -0.75149 | 6110 ft | 241 kts | 266° |
| 2026-05-05 23:14 | 51.58991 | -0.77818 | 5793 ft | 242 kts | 246° |
| 2026-05-05 23:14 | 51.57922 | -0.79891 | 5483 ft | 241 kts | 214° |
| 2026-05-05 23:15 | 51.56347 | -0.80806 | 5120 ft | 240 kts | 182° |
| 2026-05-05 23:15 | 51.54708 | -0.80344 | 4711 ft | 238 kts | 156° |
| 2026-05-05 23:15 | 51.53110 | -0.79627 | 4410 ft | 238 kts | 169° |
| 2026-05-05 23:15 | 51.51445 | -0.79381 | 4178 ft | 235 kts | 174° |
| 2026-05-05 23:16 | 51.49852 | -0.79062 | 3905 ft | 229 kts | 157° |
| 2026-05-05 23:16 | 51.48547 | -0.77671 | 3584 ft | 220 kts | 126° |
| 2026-05-05 23:16 | 51.47767 | -0.75645 | 3297 ft | 210 kts | 102° |
| 2026-05-05 23:16 | 51.47617 | -0.73445 | 3048 ft | 188 kts | 86° |
| 2026-05-05 23:17 | 51.47636 | -0.71420 | 2829 ft | 173 kts | 85° |
| 2026-05-05 23:17 | 51.47653 | -0.69548 | 2624 ft | 159 kts | 85° |
| 2026-05-05 23:17 | 51.47662 | -0.67863 | 2435 ft | 145 kts | 84° |
| 2026-05-05 23:17 | 51.47671 | -0.66244 | 2257 ft | 143 kts | 84° |
| 2026-05-05 23:18 | 51.47680 | -0.64651 | 2077 ft | 141 kts | 84° |
| 2026-05-05 23:18 | 51.47687 | -0.63066 | 1892 ft | 140 kts | 84° |
| 2026-05-05 23:18 | 51.47695 | -0.61508 | 1711 ft | 139 kts | 84° |
| 2026-05-05 23:18 | 51.47706 | -0.59954 | 1504 ft | 141 kts | 83° |
| 2026-05-05 23:19 | 51.47719 | -0.58359 | 1291 ft | 142 kts | 84° |
| 2026-05-05 23:19 | 51.47721 | -0.56750 | 1104 ft | 145 kts | 85° |
| 2026-05-05 23:19 | 51.47728 | -0.55147 | 913 ft | 143 kts | 85° |
| 2026-05-05 23:19 | 51.47734 | -0.53532 | 724 ft | 145 kts | 85° |
| 2026-05-05 23:20 | 51.47741 | -0.51869 | 526 ft | 147 kts | 86° |
| 2026-05-05 23:20 | 51.47744 | -0.50249 | 325 ft | 147 kts | 86° |
| 2026-05-05 23:20 | 51.47749 | -0.48591 | 144 ft | 146 kts | 87° |
| 2026-05-05 23:20 | 51.47755 | -0.47018 | 84 ft | 123 kts | 88° |
| 2026-05-05 23:21 | 51.47759 | -0.45892 | 84 ft | 79 kts | 89° |
| 2026-05-05 23:21 | 51.47761 | -0.45277 | 84 ft | 27 kts | 92° |
| 2026-05-05 23:21 | 51.47722 | -0.45153 | 84 ft | 10 kts | 160° |
| 2026-05-05 23:21 | 51.47651 | -0.45162 | 84 ft | 10 kts | 190° |
| 2026-05-05 23:22 | 51.47577 | -0.45172 | 84 ft | 10 kts | 185° |
| 2026-05-05 23:22 | 51.47524 | -0.45205 | 84 ft | 9 kts | 227° |
| 2026-05-05 23:22 | 51.47507 | -0.45303 | 84 ft | 10 kts | 269° |
| 2026-05-05 23:22 | 51.47508 | -0.45434 | 84 ft | 12 kts | 270° |
| 2026-05-05 23:23 | 51.47507 | -0.45585 | 84 ft | 13 kts | 269° |
| 2026-05-05 23:23 | 51.47512 | -0.45739 | 84 ft | 13 kts | 275° |
| 2026-05-05 23:23 | 51.47517 | -0.45885 | 84 ft | 12 kts | 268° |
| 2026-05-05 23:23 | 51.47516 | -0.46028 | 84 ft | 12 kts | 270° |
| 2026-05-05 23:24 | 51.47517 | -0.46168 | 84 ft | 12 kts | 270° |
| 2026-05-05 23:24 | 51.47517 | -0.46305 | 84 ft | 11 kts | 269° |
| 2026-05-05 23:24 | 51.47515 | -0.46439 | 84 ft | 11 kts | 268° |
| 2026-05-05 23:24 | 51.47514 | -0.46571 | 84 ft | 11 kts | 269° |
| 2026-05-05 23:25 | 51.47513 | -0.46691 | 84 ft | 9 kts | 262° |
| 2026-05-05 23:25 | 51.47474 | -0.46757 | 84 ft | 9 kts | 185° |
| 2026-05-05 23:25 | 51.47411 | -0.46740 | 84 ft | 9 kts | 166° |
| 2026-05-05 23:25 | 51.47348 | -0.46728 | 84 ft | 9 kts | 178° |
| 2026-05-05 23:26 | 51.47266 | -0.46728 | 84 ft | 13 kts | 179° |
| 2026-05-05 23:26 | 51.47160 | -0.46727 | 84 ft | 16 kts | 179° |
| 2026-05-05 23:26 | 51.47057 | -0.46720 | 84 ft | 11 kts | 166° |
| 2026-05-05 23:26 | 51.46996 | -0.46668 | 84 ft | 6 kts | 139° |
| 2026-05-05 23:27 | 51.46989 | -0.46608 | 84 ft | 6 kts | 70° |
| 2026-05-05 23:27 | 51.47001 | -0.46575 | 84 ft | 2 kts | 55° |
| 2026-05-05 23:27 | 51.47007 | -0.46559 | 84 ft | 1 kts | 55° |
| 2026-05-05 23:27 | 51.47012 | -0.46549 | 84 ft | 1 kts | 54° |
| 2026-05-05 23:28 | 51.47015 | -0.46541 | 84 ft | 0 kts | 54° |